sensor_id;sensor_type;location;lat;lon;timestamp;temperature;humidity
1538;DHT22;12022;52.266;10.522;2023-05-10T00:01:33;14.50;76.90
1538;DHT22;12022;52.266;10.522;2023-05-10T00:04:00;14.50;77.10
1538;DHT22;12022;52.266;10.522;2023-05-10T00:06:27;14.50;77.10
1538;DHT22;12022;52.266;10.522;2023-05-10T00:08:54;14.50;77.30
1538;DHT22;12022;52.266;10.522;2023-05-10T00:11:21;14.40;77.40
1538;DHT22;12022;52.266;10.522;2023-05-10T00:13:49;15.10;78.70
1538;DHT22;12022;52.266;10.522;2023-05-10T00:16:16;14.40;78.70
1538;DHT22;12022;52.266;10.522;2023-05-10T00:18:43;14.80;79.40
1538;DHT22;12022;52.266;10.522;2023-05-10T00:21:10;14.40;79.10
1538;DHT22;12022;52.266;10.522;2023-05-10T00:23:37;15.00;79.80
1538;DHT22;12022;52.266;10.522;2023-05-10T00:26:04;14.40;79.20
1538;DHT22;12022;52.266;10.522;2023-05-10T00:28:31;14.30;79.70
1538;DHT22;12022;52.266;10.522;2023-05-10T00:30:58;14.40;80.20
1538;DHT22;12022;52.266;10.522;2023-05-10T00:33:24;14.80;80.80
1538;DHT22;12022;52.266;10.522;2023-05-10T00:35:51;14.30;81.20
1538;DHT22;12022;52.266;10.522;2023-05-10T00:38:19;14.30;81.00
1538;DHT22;12022;52.266;10.522;2023-05-10T00:40:46;14.40;80.90
1538;DHT22;12022;52.266;10.522;2023-05-10T00:43:13;14.20;81.00
1538;DHT22;12022;52.266;10.522;2023-05-10T00:45:40;14.30;81.70
1538;DHT22;12022;52.266;10.522;2023-05-10T00:48:08;14.20;81.70
1538;DHT22;12022;52.266;10.522;2023-05-10T00:50:35;14.20;82.00
1538;DHT22;12022;52.266;10.522;2023-05-10T00:53:02;14.20;82.80
1538;DHT22;12022;52.266;10.522;2023-05-10T00:55:30;14.20;83.10
1538;DHT22;12022;52.266;10.522;2023-05-10T00:57:57;14.20;83.00
1538;DHT22;12022;52.266;10.522;2023-05-10T01:00:24;14.20;82.80
1538;DHT22;12022;52.266;10.522;2023-05-10T01:02:53;14.20;83.00
1538;DHT22;12022;52.266;10.522;2023-05-10T01:05:20;14.10;83.40
1538;DHT22;12022;52.266;10.522;2023-05-10T01:07:48;14.10;83.60
1538;DHT22;12022;52.266;10.522;2023-05-10T01:10:15;14.10;83.70
1538;DHT22;12022;52.266;10.522;2023-05-10T01:12:45;14.10;84.10
1538;DHT22;12022;52.266;10.522;2023-05-10T01:15:13;14.10;84.20
1538;DHT22;12022;52.266;10.522;2023-05-10T01:17:43;14.10;84.90
1538;DHT22;12022;52.266;10.522;2023-05-10T01:20:12;14.10;85.10
1538;DHT22;12022;52.266;10.522;2023-05-10T01:23:19;14.10;85.40
1538;DHT22;12022;52.266;10.522;2023-05-10T01:26:21;14.00;85.90
1538;DHT22;12022;52.266;10.522;2023-05-10T01:35:00;14.00;86.30
1538;DHT22;12022;52.266;10.522;2023-05-10T01:40:15;13.90;86.90
1538;DHT22;12022;52.266;10.522;2023-05-10T01:42:56;13.90;87.70
1538;DHT22;12022;52.266;10.522;2023-05-10T01:45:41;13.90;87.70
1538;DHT22;12022;52.266;10.522;2023-05-10T01:48:14;14.30;88.40
1538;DHT22;12022;52.266;10.522;2023-05-10T01:50:43;13.90;88.70
1538;DHT22;12022;52.266;10.522;2023-05-10T01:53:13;14.00;88.80
1538;DHT22;12022;52.266;10.522;2023-05-10T01:55:47;14.40;89.30
1538;DHT22;12022;52.266;10.522;2023-05-10T01:58:21;13.80;88.90
1538;DHT22;12022;52.266;10.522;2023-05-10T02:00:50;13.80;89.40
1538;DHT22;12022;52.266;10.522;2023-05-10T02:03:20;13.80;89.60
1538;DHT22;12022;52.266;10.522;2023-05-10T02:05:49;13.80;89.70
1538;DHT22;12022;52.266;10.522;2023-05-10T02:08:19;14.20;90.10
1538;DHT22;12022;52.266;10.522;2023-05-10T02:10:50;14.00;90.30
1538;DHT22;12022;52.266;10.522;2023-05-10T02:13:18;13.70;90.10
1538;DHT22;12022;52.266;10.522;2023-05-10T02:15:48;13.80;90.30
1538;DHT22;12022;52.266;10.522;2023-05-10T02:18:16;13.90;90.60
1538;DHT22;12022;52.266;10.522;2023-05-10T02:20:46;13.70;90.60
1538;DHT22;12022;52.266;10.522;2023-05-10T02:23:14;13.60;90.80
1538;DHT22;12022;52.266;10.522;2023-05-10T02:25:43;13.60;90.70
1538;DHT22;12022;52.266;10.522;2023-05-10T02:28:11;14.20;91.20
1538;DHT22;12022;52.266;10.522;2023-05-10T02:30:39;13.60;91.10
1538;DHT22;12022;52.266;10.522;2023-05-10T02:33:07;13.60;91.10
1538;DHT22;12022;52.266;10.522;2023-05-10T02:35:35;13.60;91.20
1538;DHT22;12022;52.266;10.522;2023-05-10T02:38:04;13.80;91.50
1538;DHT22;12022;52.266;10.522;2023-05-10T02:40:32;13.70;91.30
1538;DHT22;12022;52.266;10.522;2023-05-10T02:43:01;13.60;91.40
1538;DHT22;12022;52.266;10.522;2023-05-10T02:45:31;13.80;91.70
1538;DHT22;12022;52.266;10.522;2023-05-10T02:47:59;13.60;91.60
1538;DHT22;12022;52.266;10.522;2023-05-10T02:50:28;13.60;91.70
1538;DHT22;12022;52.266;10.522;2023-05-10T02:53:00;13.70;91.90
1538;DHT22;12022;52.266;10.522;2023-05-10T02:55:34;13.70;91.90
1538;DHT22;12022;52.266;10.522;2023-05-10T02:58:02;13.70;91.90
1538;DHT22;12022;52.266;10.522;2023-05-10T03:00:30;13.70;92.10
1538;DHT22;12022;52.266;10.522;2023-05-10T03:02:58;13.70;92.00
1538;DHT22;12022;52.266;10.522;2023-05-10T03:05:25;14.30;92.50
1538;DHT22;12022;52.266;10.522;2023-05-10T03:07:52;13.70;92.20
1538;DHT22;12022;52.266;10.522;2023-05-10T03:10:22;13.70;92.10
1538;DHT22;12022;52.266;10.522;2023-05-10T03:16:24;13.70;92.30
1538;DHT22;12022;52.266;10.522;2023-05-10T03:19:05;13.70;92.50
1538;DHT22;12022;52.266;10.522;2023-05-10T03:21:35;14.10;92.80
1538;DHT22;12022;52.266;10.522;2023-05-10T03:24:08;13.70;92.80
1538;DHT22;12022;52.266;10.522;2023-05-10T03:26:37;13.70;92.70
1538;DHT22;12022;52.266;10.522;2023-05-10T03:29:05;13.70;92.70
1538;DHT22;12022;52.266;10.522;2023-05-10T03:31:33;13.70;92.80
1538;DHT22;12022;52.266;10.522;2023-05-10T03:34:00;13.90;92.90
1538;DHT22;12022;52.266;10.522;2023-05-10T03:36:28;13.80;93.00
1538;DHT22;12022;52.266;10.522;2023-05-10T03:38:54;13.80;92.90
1538;DHT22;12022;52.266;10.522;2023-05-10T03:41:21;13.80;92.80
1538;DHT22;12022;52.266;10.522;2023-05-10T03:43:48;13.90;92.80
1538;DHT22;12022;52.266;10.522;2023-05-10T03:46:15;13.90;93.00
1538;DHT22;12022;52.266;10.522;2023-05-10T03:48:42;14.00;92.90
1538;DHT22;12022;52.266;10.522;2023-05-10T03:51:09;14.20;93.00
1538;DHT22;12022;52.266;10.522;2023-05-10T03:53:36;14.00;92.90
1538;DHT22;12022;52.266;10.522;2023-05-10T03:56:03;14.00;92.80
1538;DHT22;12022;52.266;10.522;2023-05-10T03:58:30;14.00;92.90
1538;DHT22;12022;52.266;10.522;2023-05-10T04:00:57;14.00;93.10
1538;DHT22;12022;52.266;10.522;2023-05-10T04:03:24;14.10;93.20
1538;DHT22;12022;52.266;10.522;2023-05-10T04:06:00;14.10;93.10
1538;DHT22;12022;52.266;10.522;2023-05-10T04:08:28;14.20;92.90
1538;DHT22;12022;52.266;10.522;2023-05-10T04:11:05;14.30;92.80
1538;DHT22;12022;52.266;10.522;2023-05-10T04:13:33;14.30;92.70
1538;DHT22;12022;52.266;10.522;2023-05-10T04:16:00;14.30;92.60
1538;DHT22;12022;52.266;10.522;2023-05-10T04:18:27;14.40;92.70
1538;DHT22;12022;52.266;10.522;2023-05-10T04:20:54;14.40;92.90
1538;DHT22;12022;52.266;10.522;2023-05-10T04:23:21;14.60;93.30
1538;DHT22;12022;52.266;10.522;2023-05-10T04:25:48;14.50;93.40
1538;DHT22;12022;52.266;10.522;2023-05-10T04:28:15;14.50;93.20
1538;DHT22;12022;52.266;10.522;2023-05-10T04:30:41;14.60;93.30
1538;DHT22;12022;52.266;10.522;2023-05-10T04:33:08;14.90;93.30
1538;DHT22;12022;52.266;10.522;2023-05-10T04:35:35;14.70;93.10
1538;DHT22;12022;52.266;10.522;2023-05-10T04:38:02;14.80;93.00
1538;DHT22;12022;52.266;10.522;2023-05-10T04:40:29;14.80;93.10
1538;DHT22;12022;52.266;10.522;2023-05-10T04:42:56;15.10;93.30
1538;DHT22;12022;52.266;10.522;2023-05-10T04:45:23;14.70;92.90
1538;DHT22;12022;52.266;10.522;2023-05-10T04:47:50;14.70;93.10
1538;DHT22;12022;52.266;10.522;2023-05-10T04:50:17;15.30;93.40
1538;DHT22;12022;52.266;10.522;2023-05-10T04:52:44;14.70;93.00
1538;DHT22;12022;52.266;10.522;2023-05-10T04:55:11;14.70;93.10
1538;DHT22;12022;52.266;10.522;2023-05-10T04:57:38;14.70;93.00
1538;DHT22;12022;52.266;10.522;2023-05-10T05:00:05;14.70;93.30
1538;DHT22;12022;52.266;10.522;2023-05-10T05:02:33;14.70;93.40
1538;DHT22;12022;52.266;10.522;2023-05-10T05:05:00;15.10;93.50
1538;DHT22;12022;52.266;10.522;2023-05-10T05:07:26;14.70;93.30
1538;DHT22;12022;52.266;10.522;2023-05-10T05:09:53;14.80;94.00
1538;DHT22;12022;52.266;10.522;2023-05-10T05:12:20;14.80;94.00
1538;DHT22;12022;52.266;10.522;2023-05-10T05:14:47;14.80;93.90
1538;DHT22;12022;52.266;10.522;2023-05-10T05:17:14;14.80;94.00
1538;DHT22;12022;52.266;10.522;2023-05-10T05:19:41;14.80;93.90
1538;DHT22;12022;52.266;10.522;2023-05-10T05:22:08;14.80;94.00
1538;DHT22;12022;52.266;10.522;2023-05-10T05:24:36;14.80;94.10
1538;DHT22;12022;52.266;10.522;2023-05-10T05:27:04;14.80;94.10
1538;DHT22;12022;52.266;10.522;2023-05-10T05:29:32;15.30;94.80
1538;DHT22;12022;52.266;10.522;2023-05-10T05:31:59;14.80;95.40
1538;DHT22;12022;52.266;10.522;2023-05-10T05:34:26;14.80;95.90
1538;DHT22;12022;52.266;10.522;2023-05-10T05:36:53;14.70;96.70
1538;DHT22;12022;52.266;10.522;2023-05-10T05:39:20;15.10;97.40
1538;DHT22;12022;52.266;10.522;2023-05-10T05:41:47;14.60;99.00
1538;DHT22;12022;52.266;10.522;2023-05-10T05:44:14;14.40;99.80
1538;DHT22;12022;52.266;10.522;2023-05-10T05:46:41;14.40;99.90
1538;DHT22;12022;52.266;10.522;2023-05-10T05:49:08;14.30;99.90
1538;DHT22;12022;52.266;10.522;2023-05-10T05:51:35;14.30;99.90
1538;DHT22;12022;52.266;10.522;2023-05-10T05:54:02;14.30;99.90
1538;DHT22;12022;52.266;10.522;2023-05-10T05:56:30;14.30;99.90
1538;DHT22;12022;52.266;10.522;2023-05-10T05:58:57;14.30;99.90
1538;DHT22;12022;52.266;10.522;2023-05-10T06:01:24;14.40;99.90
1538;DHT22;12022;52.266;10.522;2023-05-10T06:03:51;14.40;99.90
1538;DHT22;12022;52.266;10.522;2023-05-10T06:06:19;14.40;99.90
1538;DHT22;12022;52.266;10.522;2023-05-10T06:08:46;14.50;99.90
1538;DHT22;12022;52.266;10.522;2023-05-10T06:11:13;15.10;99.90
1538;DHT22;12022;52.266;10.522;2023-05-10T06:13:39;14.50;99.90
1538;DHT22;12022;52.266;10.522;2023-05-10T06:16:06;14.90;99.90
1538;DHT22;12022;52.266;10.522;2023-05-10T06:18:33;14.60;99.90
1538;DHT22;12022;52.266;10.522;2023-05-10T06:21:01;14.60;99.90
1538;DHT22;12022;52.266;10.522;2023-05-10T06:23:28;15.20;99.90
1538;DHT22;12022;52.266;10.522;2023-05-10T06:25:55;14.60;99.90
1538;DHT22;12022;52.266;10.522;2023-05-10T06:28:22;14.70;99.90
1538;DHT22;12022;52.266;10.522;2023-05-10T06:30:49;14.80;99.90
1538;DHT22;12022;52.266;10.522;2023-05-10T06:33:16;14.90;99.90
1538;DHT22;12022;52.266;10.522;2023-05-10T06:35:43;15.10;99.90
1538;DHT22;12022;52.266;10.522;2023-05-10T06:38:10;15.30;99.90
1538;DHT22;12022;52.266;10.522;2023-05-10T06:40:40;15.90;99.90
1538;DHT22;12022;52.266;10.522;2023-05-10T06:43:07;15.90;99.90
1538;DHT22;12022;52.266;10.522;2023-05-10T06:45:34;16.30;99.90
1538;DHT22;12022;52.266;10.522;2023-05-10T06:48:01;16.20;99.90
1538;DHT22;12022;52.266;10.522;2023-05-10T06:50:28;16.20;99.90
1538;DHT22;12022;52.266;10.522;2023-05-10T06:52:55;16.00;99.90
1538;DHT22;12022;52.266;10.522;2023-05-10T06:55:22;15.90;99.90
1538;DHT22;12022;52.266;10.522;2023-05-10T06:57:49;15.70;99.90
1538;DHT22;12022;52.266;10.522;2023-05-10T07:00:18;15.50;99.90
1538;DHT22;12022;52.266;10.522;2023-05-10T07:02:46;15.30;99.90
1538;DHT22;12022;52.266;10.522;2023-05-10T07:05:13;15.20;99.90
1538;DHT22;12022;52.266;10.522;2023-05-10T07:07:41;15.10;99.90
1538;DHT22;12022;52.266;10.522;2023-05-10T07:10:08;15.10;99.90
1538;DHT22;12022;52.266;10.522;2023-05-10T07:12:38;15.10;99.90
1538;DHT22;12022;52.266;10.522;2023-05-10T07:15:06;15.20;99.90
1538;DHT22;12022;52.266;10.522;2023-05-10T07:17:33;15.30;99.90
1538;DHT22;12022;52.266;10.522;2023-05-10T07:22:43;15.50;99.90
1538;DHT22;12022;52.266;10.522;2023-05-10T07:25:10;15.50;99.90
1538;DHT22;12022;52.266;10.522;2023-05-10T07:27:38;15.50;99.90
1538;DHT22;12022;52.266;10.522;2023-05-10T07:30:06;15.40;99.90
1538;DHT22;12022;52.266;10.522;2023-05-10T07:32:33;15.30;99.90
1538;DHT22;12022;52.266;10.522;2023-05-10T07:35:00;15.10;99.90
1538;DHT22;12022;52.266;10.522;2023-05-10T07:37:27;15.00;99.90
1538;DHT22;12022;52.266;10.522;2023-05-10T07:39:54;15.00;99.90
1538;DHT22;12022;52.266;10.522;2023-05-10T07:42:22;15.00;99.90
1538;DHT22;12022;52.266;10.522;2023-05-10T07:44:50;15.10;99.90
1538;DHT22;12022;52.266;10.522;2023-05-10T07:47:17;15.10;99.90
1538;DHT22;12022;52.266;10.522;2023-05-10T07:49:45;15.00;99.90
1538;DHT22;12022;52.266;10.522;2023-05-10T07:52:12;15.00;99.90
1538;DHT22;12022;52.266;10.522;2023-05-10T07:54:40;14.90;99.90
1538;DHT22;12022;52.266;10.522;2023-05-10T07:57:07;15.40;99.90
1538;DHT22;12022;52.266;10.522;2023-05-10T07:59:35;14.90;99.90
1538;DHT22;12022;52.266;10.522;2023-05-10T08:02:02;15.00;99.90
1538;DHT22;12022;52.266;10.522;2023-05-10T08:04:29;15.00;99.90
1538;DHT22;12022;52.266;10.522;2023-05-10T08:06:58;15.10;99.90
1538;DHT22;12022;52.266;10.522;2023-05-10T08:09:25;15.20;99.90
1538;DHT22;12022;52.266;10.522;2023-05-10T08:11:53;15.30;99.90
1538;DHT22;12022;52.266;10.522;2023-05-10T08:14:22;15.50;99.90
1538;DHT22;12022;52.266;10.522;2023-05-10T08:16:49;15.60;99.90
1538;DHT22;12022;52.266;10.522;2023-05-10T08:19:16;15.60;99.90
1538;DHT22;12022;52.266;10.522;2023-05-10T08:21:46;15.60;99.90
1538;DHT22;12022;52.266;10.522;2023-05-10T08:24:13;15.60;99.90
1538;DHT22;12022;52.266;10.522;2023-05-10T08:26:40;15.70;99.90
1538;DHT22;12022;52.266;10.522;2023-05-10T08:29:07;15.60;99.90
1538;DHT22;12022;52.266;10.522;2023-05-10T08:31:33;15.60;99.90
1538;DHT22;12022;52.266;10.522;2023-05-10T08:34:00;15.50;99.90
1538;DHT22;12022;52.266;10.522;2023-05-10T08:36:28;15.60;99.90
1538;DHT22;12022;52.266;10.522;2023-05-10T08:38:55;15.40;99.90
1538;DHT22;12022;52.266;10.522;2023-05-10T08:41:22;15.40;99.90
1538;DHT22;12022;52.266;10.522;2023-05-10T08:43:54;15.40;99.90
1538;DHT22;12022;52.266;10.522;2023-05-10T08:46:22;15.40;99.90
1538;DHT22;12022;52.266;10.522;2023-05-10T08:48:51;15.40;99.90
1538;DHT22;12022;52.266;10.522;2023-05-10T08:51:23;15.40;99.90
1538;DHT22;12022;52.266;10.522;2023-05-10T08:53:53;15.40;99.90
1538;DHT22;12022;52.266;10.522;2023-05-10T08:56:20;15.50;99.90
1538;DHT22;12022;52.266;10.522;2023-05-10T08:58:47;15.50;99.90
1538;DHT22;12022;52.266;10.522;2023-05-10T09:01:16;15.50;99.90
1538;DHT22;12022;52.266;10.522;2023-05-10T09:03:46;15.50;99.90
1538;DHT22;12022;52.266;10.522;2023-05-10T09:06:14;15.50;99.90
1538;DHT22;12022;52.266;10.522;2023-05-10T09:08:42;15.70;99.90
1538;DHT22;12022;52.266;10.522;2023-05-10T09:11:10;15.50;99.90
1538;DHT22;12022;52.266;10.522;2023-05-10T09:13:37;15.60;99.90
1538;DHT22;12022;52.266;10.522;2023-05-10T09:16:04;15.70;99.90
1538;DHT22;12022;52.266;10.522;2023-05-10T09:18:47;15.70;99.90
1538;DHT22;12022;52.266;10.522;2023-05-10T09:21:14;15.70;99.90
1538;DHT22;12022;52.266;10.522;2023-05-10T09:23:45;16.00;99.90
1538;DHT22;12022;52.266;10.522;2023-05-10T09:26:14;15.80;99.90
1538;DHT22;12022;52.266;10.522;2023-05-10T09:28:57;15.80;99.90
1538;DHT22;12022;52.266;10.522;2023-05-10T09:31:25;15.90;99.90
1538;DHT22;12022;52.266;10.522;2023-05-10T09:34:15;15.90;99.90
1538;DHT22;12022;52.266;10.522;2023-05-10T09:37:00;15.90;99.90
1538;DHT22;12022;52.266;10.522;2023-05-10T09:42:09;16.00;99.90
1538;DHT22;12022;52.266;10.522;2023-05-10T09:44:36;16.00;99.90
1538;DHT22;12022;52.266;10.522;2023-05-10T09:47:06;16.00;99.90
1538;DHT22;12022;52.266;10.522;2023-05-10T09:49:33;16.10;99.90
1538;DHT22;12022;52.266;10.522;2023-05-10T09:52:05;16.10;99.90
1538;DHT22;12022;52.266;10.522;2023-05-10T09:54:35;16.20;99.90
1538;DHT22;12022;52.266;10.522;2023-05-10T09:57:02;16.30;99.90
1538;DHT22;12022;52.266;10.522;2023-05-10T09:59:32;16.30;99.90
1538;DHT22;12022;52.266;10.522;2023-05-10T10:02:05;16.40;99.90
1538;DHT22;12022;52.266;10.522;2023-05-10T10:04:39;16.60;99.90
1538;DHT22;12022;52.266;10.522;2023-05-10T10:07:06;16.60;99.90
1538;DHT22;12022;52.266;10.522;2023-05-10T10:09:34;16.70;99.90
1538;DHT22;12022;52.266;10.522;2023-05-10T10:12:02;16.80;99.90
1538;DHT22;12022;52.266;10.522;2023-05-10T10:14:33;16.80;99.90
1538;DHT22;12022;52.266;10.522;2023-05-10T10:17:01;16.90;99.90
1538;DHT22;12022;52.266;10.522;2023-05-10T10:19:33;17.00;99.90
1538;DHT22;12022;52.266;10.522;2023-05-10T10:22:04;16.80;99.90
1538;DHT22;12022;52.266;10.522;2023-05-10T10:24:31;16.60;99.90
1538;DHT22;12022;52.266;10.522;2023-05-10T10:27:21;16.60;99.90
1538;DHT22;12022;52.266;10.522;2023-05-10T10:30:15;16.40;99.90
1538;DHT22;12022;52.266;10.522;2023-05-10T10:35:21;16.40;99.90
1538;DHT22;12022;52.266;10.522;2023-05-10T10:37:50;16.30;99.90
1538;DHT22;12022;52.266;10.522;2023-05-10T10:40:33;16.50;99.90
1538;DHT22;12022;52.266;10.522;2023-05-10T10:43:26;16.60;99.90
1538;DHT22;12022;52.266;10.522;2023-05-10T10:46:13;16.70;99.90
1538;DHT22;12022;52.266;10.522;2023-05-10T10:49:10;16.70;99.90
1538;DHT22;12022;52.266;10.522;2023-05-10T10:51:38;16.80;99.90
1538;DHT22;12022;52.266;10.522;2023-05-10T10:54:11;16.90;99.90
1538;DHT22;12022;52.266;10.522;2023-05-10T10:56:38;17.00;99.90
1538;DHT22;12022;52.266;10.522;2023-05-10T10:59:05;17.10;99.90
1538;DHT22;12022;52.266;10.522;2023-05-10T11:01:34;17.10;99.90
1538;DHT22;12022;52.266;10.522;2023-05-10T11:06:33;17.10;99.90
1538;DHT22;12022;52.266;10.522;2023-05-10T11:09:10;17.10;99.90
1538;DHT22;12022;52.266;10.522;2023-05-10T11:11:54;17.20;99.90
1538;DHT22;12022;52.266;10.522;2023-05-10T11:14:26;17.30;99.90
1538;DHT22;12022;52.266;10.522;2023-05-10T11:16:53;17.10;99.90
1538;DHT22;12022;52.266;10.522;2023-05-10T11:19:20;17.10;99.90
1538;DHT22;12022;52.266;10.522;2023-05-10T11:22:11;17.10;99.90
1538;DHT22;12022;52.266;10.522;2023-05-10T11:24:40;17.10;99.90
1538;DHT22;12022;52.266;10.522;2023-05-10T11:27:22;17.30;99.90
1538;DHT22;12022;52.266;10.522;2023-05-10T11:29:53;17.50;99.90
1538;DHT22;12022;52.266;10.522;2023-05-10T11:32:21;17.70;99.90
1538;DHT22;12022;52.266;10.522;2023-05-10T11:34:48;17.80;99.90
1538;DHT22;12022;52.266;10.522;2023-05-10T11:37:18;18.00;99.90
1538;DHT22;12022;52.266;10.522;2023-05-10T11:39:46;18.20;99.90
1538;DHT22;12022;52.266;10.522;2023-05-10T11:42:16;18.40;99.90
1538;DHT22;12022;52.266;10.522;2023-05-10T11:44:45;18.60;99.90
1538;DHT22;12022;52.266;10.522;2023-05-10T11:47:17;18.70;99.90
1538;DHT22;12022;52.266;10.522;2023-05-10T11:49:44;18.80;99.90
1538;DHT22;12022;52.266;10.522;2023-05-10T11:52:12;18.70;99.90
1538;DHT22;12022;52.266;10.522;2023-05-10T11:54:51;18.60;99.90
1538;DHT22;12022;52.266;10.522;2023-05-10T11:57:26;18.50;99.90
1538;DHT22;12022;52.266;10.522;2023-05-10T11:59:54;18.50;99.90
1538;DHT22;12022;52.266;10.522;2023-05-10T12:02:24;18.60;99.90
1538;DHT22;12022;52.266;10.522;2023-05-10T12:04:55;18.80;99.90
1538;DHT22;12022;52.266;10.522;2023-05-10T12:07:28;18.90;99.90
1538;DHT22;12022;52.266;10.522;2023-05-10T12:10:13;19.10;99.90
1538;DHT22;12022;52.266;10.522;2023-05-10T12:12:52;19.40;99.90
1538;DHT22;12022;52.266;10.522;2023-05-10T12:15:24;19.60;99.90
1538;DHT22;12022;52.266;10.522;2023-05-10T12:17:54;19.90;99.90
1538;DHT22;12022;52.266;10.522;2023-05-10T12:20:23;20.00;99.90
1538;DHT22;12022;52.266;10.522;2023-05-10T12:22:55;20.00;99.90
1538;DHT22;12022;52.266;10.522;2023-05-10T12:25:30;20.10;99.90
1538;DHT22;12022;52.266;10.522;2023-05-10T12:28:00;20.40;99.90
1538;DHT22;12022;52.266;10.522;2023-05-10T12:30:33;20.60;99.90
1538;DHT22;12022;52.266;10.522;2023-05-10T12:33:10;20.90;99.90
1538;DHT22;12022;52.266;10.522;2023-05-10T12:35:52;20.90;99.90
1538;DHT22;12022;52.266;10.522;2023-05-10T12:38:36;21.10;99.90
1538;DHT22;12022;52.266;10.522;2023-05-10T12:41:10;21.40;99.90
1538;DHT22;12022;52.266;10.522;2023-05-10T12:43:40;21.50;99.90
1538;DHT22;12022;52.266;10.522;2023-05-10T12:46:14;21.70;99.90
1538;DHT22;12022;52.266;10.522;2023-05-10T12:48:44;21.80;99.90
1538;DHT22;12022;52.266;10.522;2023-05-10T12:51:13;21.90;99.90
1538;DHT22;12022;52.266;10.522;2023-05-10T12:53:42;21.80;99.90
1538;DHT22;12022;52.266;10.522;2023-05-10T12:56:15;21.80;99.90
1538;DHT22;12022;52.266;10.522;2023-05-10T12:58:42;21.70;99.90
1538;DHT22;12022;52.266;10.522;2023-05-10T13:01:15;21.80;99.90
1538;DHT22;12022;52.266;10.522;2023-05-10T13:03:45;21.90;99.90
1538;DHT22;12022;52.266;10.522;2023-05-10T13:06:13;22.00;99.90
1538;DHT22;12022;52.266;10.522;2023-05-10T13:08:40;22.10;99.90
1538;DHT22;12022;52.266;10.522;2023-05-10T13:11:14;22.20;99.90
1538;DHT22;12022;52.266;10.522;2023-05-10T13:14:02;22.30;99.90
1538;DHT22;12022;52.266;10.522;2023-05-10T13:16:43;22.40;99.90
1538;DHT22;12022;52.266;10.522;2023-05-10T13:19:10;22.60;99.90
1538;DHT22;12022;52.266;10.522;2023-05-10T13:21:38;22.80;99.90
1538;DHT22;12022;52.266;10.522;2023-05-10T13:24:07;22.80;99.90
1538;DHT22;12022;52.266;10.522;2023-05-10T13:26:39;22.90;99.90
1538;DHT22;12022;52.266;10.522;2023-05-10T13:29:11;23.00;99.90
1538;DHT22;12022;52.266;10.522;2023-05-10T13:31:41;22.90;99.90
1538;DHT22;12022;52.266;10.522;2023-05-10T13:34:13;23.00;99.90
1538;DHT22;12022;52.266;10.522;2023-05-10T13:36:44;23.00;99.90
1538;DHT22;12022;52.266;10.522;2023-05-10T13:39:16;23.00;99.90
1538;DHT22;12022;52.266;10.522;2023-05-10T13:42:14;23.00;99.90
1538;DHT22;12022;52.266;10.522;2023-05-10T13:44:42;23.00;99.90
1538;DHT22;12022;52.266;10.522;2023-05-10T13:47:16;23.00;99.90
1538;DHT22;12022;52.266;10.522;2023-05-10T13:49:46;22.90;99.90
1538;DHT22;12022;52.266;10.522;2023-05-10T13:52:17;22.90;99.90
1538;DHT22;12022;52.266;10.522;2023-05-10T13:54:50;22.80;99.90
1538;DHT22;12022;52.266;10.522;2023-05-10T13:57:22;22.60;99.90
1538;DHT22;12022;52.266;10.522;2023-05-10T13:59:53;22.70;99.90
1538;DHT22;12022;52.266;10.522;2023-05-10T14:02:22;22.60;99.90
1538;DHT22;12022;52.266;10.522;2023-05-10T14:04:50;22.60;99.90
1538;DHT22;12022;52.266;10.522;2023-05-10T14:07:18;22.60;99.90
1538;DHT22;12022;52.266;10.522;2023-05-10T14:09:45;22.60;99.90
1538;DHT22;12022;52.266;10.522;2023-05-10T14:12:12;22.50;99.90
1538;DHT22;12022;52.266;10.522;2023-05-10T14:14:41;22.50;99.90
1538;DHT22;12022;52.266;10.522;2023-05-10T14:17:08;22.50;99.90
1538;DHT22;12022;52.266;10.522;2023-05-10T14:19:38;22.40;99.90
1538;DHT22;12022;52.266;10.522;2023-05-10T14:22:11;22.00;99.90
1538;DHT22;12022;52.266;10.522;2023-05-10T14:24:38;22.10;99.90
1538;DHT22;12022;52.266;10.522;2023-05-10T14:27:06;22.00;99.90
1538;DHT22;12022;52.266;10.522;2023-05-10T14:29:34;22.00;99.90
1538;DHT22;12022;52.266;10.522;2023-05-10T14:32:01;22.10;99.90
1538;DHT22;12022;52.266;10.522;2023-05-10T14:34:28;22.10;99.90
1538;DHT22;12022;52.266;10.522;2023-05-10T14:36:55;22.20;99.90
1538;DHT22;12022;52.266;10.522;2023-05-10T14:39:22;22.30;99.90
1538;DHT22;12022;52.266;10.522;2023-05-10T14:41:50;22.30;99.90
1538;DHT22;12022;52.266;10.522;2023-05-10T14:44:18;22.30;99.90
1538;DHT22;12022;52.266;10.522;2023-05-10T14:46:45;22.40;99.90
1538;DHT22;12022;52.266;10.522;2023-05-10T14:49:12;22.50;99.90
1538;DHT22;12022;52.266;10.522;2023-05-10T14:51:39;22.50;99.90
1538;DHT22;12022;52.266;10.522;2023-05-10T14:54:06;22.60;99.90
1538;DHT22;12022;52.266;10.522;2023-05-10T14:56:33;22.70;99.90
1538;DHT22;12022;52.266;10.522;2023-05-10T14:59:00;22.70;99.90
1538;DHT22;12022;52.266;10.522;2023-05-10T15:01:28;22.80;99.90
1538;DHT22;12022;52.266;10.522;2023-05-10T15:04:20;22.90;99.90
1538;DHT22;12022;52.266;10.522;2023-05-10T15:06:48;23.10;99.90
1538;DHT22;12022;52.266;10.522;2023-05-10T15:09:15;23.10;99.90
1538;DHT22;12022;52.266;10.522;2023-05-10T15:11:43;23.10;99.90
1538;DHT22;12022;52.266;10.522;2023-05-10T15:14:11;23.20;99.90
1538;DHT22;12022;52.266;10.522;2023-05-10T15:16:38;23.40;99.90
1538;DHT22;12022;52.266;10.522;2023-05-10T15:19:05;23.40;99.90
1538;DHT22;12022;52.266;10.522;2023-05-10T15:21:32;23.40;99.90
1538;DHT22;12022;52.266;10.522;2023-05-10T15:24:05;23.40;99.90
1538;DHT22;12022;52.266;10.522;2023-05-10T15:26:32;23.40;99.90
1538;DHT22;12022;52.266;10.522;2023-05-10T15:28:59;23.30;99.90
1538;DHT22;12022;52.266;10.522;2023-05-10T15:31:27;23.30;99.90
1538;DHT22;12022;52.266;10.522;2023-05-10T15:33:57;23.30;99.90
1538;DHT22;12022;52.266;10.522;2023-05-10T15:36:27;23.20;99.90
1538;DHT22;12022;52.266;10.522;2023-05-10T15:38:54;23.10;99.90
1538;DHT22;12022;52.266;10.522;2023-05-10T15:41:21;23.00;99.90
1538;DHT22;12022;52.266;10.522;2023-05-10T15:43:48;22.90;99.90
1538;DHT22;12022;52.266;10.522;2023-05-10T15:46:15;22.80;99.90
1538;DHT22;12022;52.266;10.522;2023-05-10T15:48:42;22.80;99.90
1538;DHT22;12022;52.266;10.522;2023-05-10T15:51:09;22.80;99.90
1538;DHT22;12022;52.266;10.522;2023-05-10T15:53:36;22.80;99.90
1538;DHT22;12022;52.266;10.522;2023-05-10T15:56:08;22.80;99.90
1538;DHT22;12022;52.266;10.522;2023-05-10T15:58:35;22.80;99.90
1538;DHT22;12022;52.266;10.522;2023-05-10T16:01:02;22.80;99.90
1538;DHT22;12022;52.266;10.522;2023-05-10T16:03:32;22.70;99.90
1538;DHT22;12022;52.266;10.522;2023-05-10T16:06:03;22.70;99.90
1538;DHT22;12022;52.266;10.522;2023-05-10T16:08:30;22.70;99.90